Airport View

Enter AWOS ICAO identifier for current METAR.

ex. KFNL

KMIA 121053Z 00000KT 10SM FEW047 BKN060 23/19 A2996 RMK AO2 SLP144 T02280194

12 Nov 2019 11:42

Phone: 305-870-0235

Other Area AWOS: KOPF - KTMB - KHWO - KFLL

TAF AMD KMIA 120934Z 1210/1312 VRB04KT P6SM FEW050 SCT250 FM121500 16006KT P6SM SCT035 SCT250 FM122300 21005KT P6SM FEW040 FEW090 FM130200 VRB04KT P6SM FEW040 FEW090